Time;durP1;ratioP1;P1;durP2;ratioP2;P2;SDS_P1;SDS_P2;PMS_P1;PMS_P2;Temp;Humidity;BMP_temperature;BMP_pressure;BME280_temperature;BME280_humidity;BME280_pressure;Samples;Min_cycle;Max_cycle;Signal;HPM_P1;HPM_P2
2023/12/21 00:01:49;;;;;;;5.78;1.35;;;;;;;;;;5031535;28;20094;-81
2023/12/21 00:04:18;;;;;;;4.22;1.73;;;;;;;;;;5050887;28;20460;-80
2023/12/21 00:06:44;;;;;;;3.25;1.27;;;;;;;;;;5029730;28;20052;-83
2023/12/21 00:09:10;;;;;;;4.30;1.38;;;;;;;;;;5020281;28;20029;-83
2023/12/21 00:11:37;;;;;;;4.72;1.30;;;;;;;;;;5032941;28;20499;-82
2023/12/21 00:14:03;;;;;;;11.23;3.40;;;;;;;;;;5011875;28;20044;-82
2023/12/21 00:16:29;;;;;;;7.22;1.88;;;;;;;;;;5038737;28;20472;-82
2023/12/21 00:18:56;;;;;;;5.18;1.08;;;;;;;;;;5050902;28;20051;-82
2023/12/21 00:21:22;;;;;;;6.15;0.95;;;;;;;;;;5037174;28;20728;-83
2023/12/21 00:23:48;;;;;;;5.00;1.33;;;;;;;;;;5039737;28;20099;-82
2023/12/21 00:26:14;;;;;;;2.40;1.23;;;;;;;;;;5054655;28;20034;-83
2023/12/21 00:28:40;;;;;;;7.32;1.92;;;;;;;;;;5033082;28;20045;-83
2023/12/21 00:31:06;;;;;;;2.25;1.30;;;;;;;;;;5035563;28;20081;-82
2023/12/21 00:33:32;;;;;;;9.30;2.80;;;;;;;;;;5035343;28;20041;-82
2023/12/21 00:35:58;;;;;;;6.85;1.73;;;;;;;;;;5022377;28;20041;-82
2023/12/21 00:38:24;;;;;;;5.93;1.30;;;;;;;;;;5041955;28;20073;-83
2023/12/21 00:40:52;;;;;;;5.47;2.15;;;;;;;;;;5017585;28;20033;-83
2023/12/21 00:43:18;;;;;;;4.28;1.30;;;;;;;;;;5048640;28;20120;-82
2023/12/21 00:45:44;;;;;;;3.63;1.60;;;;;;;;;;5040404;28;20044;-83
2023/12/21 00:48:10;;;;;;;9.38;1.90;;;;;;;;;;5039208;28;20060;-82
2023/12/21 00:50:36;;;;;;;4.85;1.05;;;;;;;;;;5063975;28;20037;-83
2023/12/21 00:53:02;;;;;;;2.00;1.23;;;;;;;;;;5045323;28;20048;-82
2023/12/21 00:55:31;;;;;;;3.50;1.52;;;;;;;;;;5051757;28;20457;-82
2023/12/21 00:57:57;;;;;;;2.78;1.48;;;;;;;;;;5047258;28;20033;-82
2023/12/21 01:00:23;;;;;;;1.73;1.10;;;;;;;;;;5056017;28;20119;-83
2023/12/21 01:02:52;;;;;;;3.70;1.58;;;;;;;;;;5049300;28;20037;-82
2023/12/21 01:05:18;;;;;;;4.90;1.63;;;;;;;;;;5033618;28;20491;-82
2023/12/21 01:07:44;;;;;;;4.25;1.85;;;;;;;;;;5025400;28;20486;-82
2023/12/21 01:10:11;;;;;;;4.13;1.23;;;;;;;;;;5033846;28;20068;-82
2023/12/21 01:12:37;;;;;;;6.93;1.52;;;;;;;;;;5029755;28;20113;-82
2023/12/21 01:15:03;;;;;;;1.60;0.55;;;;;;;;;;5029880;28;20132;-82
2023/12/21 01:17:29;;;;;;;14.70;1.85;;;;;;;;;;5043932;28;20093;-82
2023/12/21 01:19:55;;;;;;;6.28;1.83;;;;;;;;;;5045315;28;20041;-83
2023/12/21 01:22:21;;;;;;;7.32;2.25;;;;;;;;;;5052858;28;20041;-82
2023/12/21 01:24:47;;;;;;;2.20;1.40;;;;;;;;;;5047520;28;20053;-82
2023/12/21 01:27:13;;;;;;;5.05;2.70;;;;;;;;;;5046929;28;20044;-82
2023/12/21 01:29:39;;;;;;;2.90;1.20;;;;;;;;;;5046231;28;20033;-83
2023/12/21 01:32:06;;;;;;;5.90;1.85;;;;;;;;;;5045138;28;20095;-82
2023/12/21 01:34:32;;;;;;;5.85;1.75;;;;;;;;;;5047161;28;20037;-83
2023/12/21 01:36:57;;;;;;;5.53;1.65;;;;;;;;;;5027599;28;20040;-83
2023/12/21 01:39:23;;;;;;;3.40;1.25;;;;;;;;;;5030981;28;20107;-83
2023/12/21 01:41:50;;;;;;;11.63;2.72;;;;;;;;;;5045685;28;20044;-85
2023/12/21 01:44:16;;;;;;;9.00;2.45;;;;;;;;;;5029202;28;20079;-84
2023/12/21 01:46:43;;;;;;;1.83;1.17;;;;;;;;;;5016218;28;20393;-83
2023/12/21 01:49:09;;;;;;;4.47;1.00;;;;;;;;;;5046786;28;20100;-84
2023/12/21 01:51:35;;;;;;;1.58;1.30;;;;;;;;;;5046519;28;20036;-83
2023/12/21 01:54:04;;;;;;;4.70;1.83;;;;;;;;;;5044501;28;20109;-80
2023/12/21 01:56:33;;;;;;;10.55;2.40;;;;;;;;;;5028875;28;20053;-80
2023/12/21 01:59:00;;;;;;;3.72;1.75;;;;;;;;;;5029611;28;20131;-81
2023/12/21 02:01:26;;;;;;;2.58;1.88;;;;;;;;;;5050177;28;20040;-81
2023/12/21 02:03:54;;;;;;;5.30;1.33;;;;;;;;;;5051179;28;20072;-81
2023/12/21 02:06:20;;;;;;;2.83;1.40;;;;;;;;;;5047398;28;20038;-82
2023/12/21 02:08:46;;;;;;;4.15;2.15;;;;;;;;;;5049447;28;20048;-81
2023/12/21 02:11:12;;;;;;;6.30;1.95;;;;;;;;;;5047880;28;20112;-81
2023/12/21 02:13:38;;;;;;;8.38;2.05;;;;;;;;;;5049790;28;20507;-79
2023/12/21 02:16:05;;;;;;;4.30;1.65;;;;;;;;;;5047739;28;20476;-80
2023/12/21 02:18:31;;;;;;;12.27;3.72;;;;;;;;;;5046866;28;20055;-80
2023/12/21 02:20:58;;;;;;;3.90;1.92;;;;;;;;;;5048132;28;20500;-80
2023/12/21 02:23:26;;;;;;;10.40;2.03;;;;;;;;;;5029177;28;20045;-82
2023/12/21 02:25:52;;;;;;;9.25;1.10;;;;;;;;;;5027012;28;20492;-81
2023/12/21 02:28:18;;;;;;;7.60;2.35;;;;;;;;;;5048882;28;20033;-80
2023/12/21 02:30:46;;;;;;;1.77;0.85;;;;;;;;;;5045260;28;20131;-81
2023/12/21 02:33:12;;;;;;;3.88;1.88;;;;;;;;;;5045330;28;20045;-81
2023/12/21 02:35:38;;;;;;;2.95;0.95;;;;;;;;;;5047615;28;20043;-80
2023/12/21 02:38:04;;;;;;;6.30;1.33;;;;;;;;;;5044913;28;20534;-80
2023/12/21 02:40:30;;;;;;;4.65;1.58;;;;;;;;;;5042482;28;20040;-81
2023/12/21 02:42:56;;;;;;;0.82;0.70;;;;;;;;;;5043077;28;20064;-81
2023/12/21 02:45:22;;;;;;;4.50;1.52;;;;;;;;;;5044293;28;20447;-81
2023/12/21 02:47:48;;;;;;;3.25;2.22;;;;;;;;;;5046685;28;20041;-81
2023/12/21 02:50:14;;;;;;;8.30;1.45;;;;;;;;;;5048310;28;20552;-81
2023/12/21 02:52:40;;;;;;;4.78;1.30;;;;;;;;;;5046461;28;20038;-80
2023/12/21 02:55:06;;;;;;;3.28;0.75;;;;;;;;;;5044457;28;20051;-81
2023/12/21 02:57:32;;;;;;;6.25;1.90;;;;;;;;;;5045745;28;20049;-80
2023/12/21 02:59:59;;;;;;;1.02;0.90;;;;;;;;;;5050555;28;20123;-81
2023/12/21 03:02:25;;;;;;;4.28;1.67;;;;;;;;;;5030802;28;20598;-80
2023/12/21 03:04:51;;;;;;;16.50;1.83;;;;;;;;;;5044181;28;20037;-80
2023/12/21 03:07:17;;;;;;;4.30;1.60;;;;;;;;;;5055470;28;20047;-80
2023/12/21 03:09:43;;;;;;;6.90;2.08;;;;;;;;;;5048954;28;20064;-82
2023/12/21 03:12:09;;;;;;;1.70;0.75;;;;;;;;;;5032361;28;20045;-82
2023/12/21 03:14:35;;;;;;;2.40;1.40;;;;;;;;;;5034875;28;20045;-80
2023/12/21 03:17:01;;;;;;;3.15;0.77;;;;;;;;;;5047689;28;20507;-81
2023/12/21 03:19:27;;;;;;;6.88;2.53;;;;;;;;;;5029180;28;20037;-81
2023/12/21 03:21:53;;;;;;;3.92;1.83;;;;;;;;;;5052353;28;20068;-80
2023/12/21 03:24:18;;;;;;;3.75;1.13;;;;;;;;;;5052272;28;20033;-81
2023/12/21 03:26:46;;;;;;;9.90;1.63;;;;;;;;;;5050074;28;20040;-81
2023/12/21 03:29:12;;;;;;;2.90;0.90;;;;;;;;;;5036565;28;20436;-80
2023/12/21 03:31:38;;;;;;;12.02;3.03;;;;;;;;;;5049699;28;20033;-80
2023/12/21 03:34:04;;;;;;;3.55;1.77;;;;;;;;;;5058459;28;20115;-80
2023/12/21 03:36:31;;;;;;;8.80;0.95;;;;;;;;;;5033649;28;20045;-83
2023/12/21 03:38:59;;;;;;;5.32;1.80;;;;;;;;;;5051947;28;20061;-83
2023/12/21 03:41:25;;;;;;;3.70;1.80;;;;;;;;;;5053647;28;20037;-83
2023/12/21 03:43:51;;;;;;;2.58;1.27;;;;;;;;;;5047975;28;20398;-82
2023/12/21 03:46:17;;;;;;;2.90;1.45;;;;;;;;;;5051643;28;20044;-82
2023/12/21 03:48:43;;;;;;;1.45;0.75;;;;;;;;;;5051861;28;20496;-83
2023/12/21 03:51:09;;;;;;;3.95;1.80;;;;;;;;;;5050081;28;20048;-82
2023/12/21 03:53:35;;;;;;;1.13;1.02;;;;;;;;;;5051995;28;20037;-82
2023/12/21 03:56:01;;;;;;;3.78;1.00;;;;;;;;;;5050163;28;20049;-82
2023/12/21 03:58:27;;;;;;;3.63;0.73;;;;;;;;;;5050313;28;20056;-83
2023/12/21 04:00:53;;;;;;;6.10;2.42;;;;;;;;;;5055896;28;20038;-82
2023/12/21 04:03:19;;;;;;;4.28;2.13;;;;;;;;;;5050953;28;20528;-80
2023/12/21 04:05:45;;;;;;;6.63;1.95;;;;;;;;;;5031289;28;20037;-80
2023/12/21 04:08:11;;;;;;;3.58;2.08;;;;;;;;;;5047493;28;20034;-80
2023/12/21 04:10:37;;;;;;;1.83;1.58;;;;;;;;;;5029107;28;20053;-79
2023/12/21 04:13:03;;;;;;;1.00;0.52;;;;;;;;;;5044538;28;20079;-80
2023/12/21 04:15:29;;;;;;;2.15;1.25;;;;;;;;;;5048138;28;20037;-79
2023/12/21 04:17:55;;;;;;;1.58;1.20;;;;;;;;;;5035649;28;20047;-80
2023/12/21 04:20:21;;;;;;;1.33;0.93;;;;;;;;;;5053216;28;20042;-80
2023/12/21 04:22:47;;;;;;;3.30;1.58;;;;;;;;;;5049438;28;20492;-83
2023/12/21 04:25:13;;;;;;;4.50;1.90;;;;;;;;;;5047778;28;20065;-83
2023/12/21 04:27:39;;;;;;;2.75;2.00;;;;;;;;;;5051480;28;20029;-83
2023/12/21 04:30:05;;;;;;;4.53;2.28;;;;;;;;;;5049312;28;20133;-82
2023/12/21 04:32:31;;;;;;;5.47;1.85;;;;;;;;;;5049898;28;20092;-83
2023/12/21 04:34:57;;;;;;;3.22;1.58;;;;;;;;;;5045162;28;20069;-83
2023/12/21 04:37:23;;;;;;;3.33;1.33;;;;;;;;;;5047375;28;20401;-82
2023/12/21 04:39:49;;;;;;;3.47;1.45;;;;;;;;;;5057023;28;20103;-83
2023/12/21 04:42:15;;;;;;;3.95;1.75;;;;;;;;;;5049754;28;20040;-83
2023/12/21 04:44:41;;;;;;;1.73;1.08;;;;;;;;;;5047292;28;20040;-83
2023/12/21 04:47:09;;;;;;;5.47;2.35;;;;;;;;;;5052995;28;20038;-80
2023/12/21 04:49:35;;;;;;;4.50;1.65;;;;;;;;;;5050684;28;20037;-80
2023/12/21 04:52:02;;;;;;;4.13;2.20;;;;;;;;;;5049659;28;20033;-80
2023/12/21 04:54:28;;;;;;;2.80;1.55;;;;;;;;;;5028676;28;20056;-80
2023/12/21 04:56:54;;;;;;;5.05;2.05;;;;;;;;;;5028030;28;20049;-80
2023/12/21 04:59:20;;;;;;;4.28;1.48;;;;;;;;;;5048245;28;20039;-80
2023/12/21 05:01:50;;;;;;;2.58;1.00;;;;;;;;;;5051941;28;20043;-80
2023/12/21 05:04:16;;;;;;;3.65;1.45;;;;;;;;;;5032655;28;20044;-80
2023/12/21 05:06:42;;;;;;;2.03;1.27;;;;;;;;;;5047566;28;20037;-80
2023/12/21 05:09:08;;;;;;;1.95;0.95;;;;;;;;;;5053080;28;20123;-79
2023/12/21 05:11:34;;;;;;;3.20;1.20;;;;;;;;;;5048417;28;20045;-79
2023/12/21 05:14:00;;;;;;;3.55;1.63;;;;;;;;;;5044392;28;20052;-80
2023/12/21 05:16:26;;;;;;;3.72;1.38;;;;;;;;;;5028023;28;20523;-80
2023/12/21 05:18:52;;;;;;;3.25;1.77;;;;;;;;;;5042130;28;20037;-79
2023/12/21 05:21:18;;;;;;;3.70;1.75;;;;;;;;;;5042129;28;20041;-79
2023/12/21 05:23:44;;;;;;;1.30;0.82;;;;;;;;;;5050687;28;20040;-80
2023/12/21 05:26:11;;;;;;;6.05;2.15;;;;;;;;;;5043948;28;20041;-79
2023/12/21 05:28:38;;;;;;;5.18;2.53;;;;;;;;;;5047949;28;20052;-79
2023/12/21 05:31:05;;;;;;;3.80;1.67;;;;;;;;;;5049178;28;20037;-81
2023/12/21 05:33:31;;;;;;;1.83;1.08;;;;;;;;;;5032627;28;20178;-79
2023/12/21 05:35:57;;;;;;;5.40;1.65;;;;;;;;;;5046501;28;20068;-79
2023/12/21 05:38:23;;;;;;;3.65;1.35;;;;;;;;;;5057692;28;20326;-80
2023/12/21 05:40:49;;;;;;;2.22;1.02;;;;;;;;;;5050896;28;20705;-80
2023/12/21 05:43:15;;;;;;;4.03;1.65;;;;;;;;;;5049614;28;20049;-80
2023/12/21 05:45:41;;;;;;;9.65;1.90;;;;;;;;;;5027466;28;20053;-80
2023/12/21 05:48:07;;;;;;;4.90;2.20;;;;;;;;;;5050992;28;20029;-79
2023/12/21 05:50:33;;;;;;;8.25;2.20;;;;;;;;;;5047818;28;20037;-82
2023/12/21 05:52:59;;;;;;;1.65;0.80;;;;;;;;;;5044227;28;20091;-81
2023/12/21 05:55:25;;;;;;;1.73;0.88;;;;;;;;;;5045283;28;20087;-83
2023/12/21 05:57:51;;;;;;;1.73;1.00;;;;;;;;;;5050798;28;20036;-82
2023/12/21 06:00:17;;;;;;;2.88;0.57;;;;;;;;;;5028400;28;20049;-82
2023/12/21 06:02:43;;;;;;;10.02;2.70;;;;;;;;;;5048984;28;20040;-82
2023/12/21 06:05:09;;;;;;;0.93;0.80;;;;;;;;;;5046169;28;20037;-83
2023/12/21 06:07:35;;;;;;;2.92;1.05;;;;;;;;;;5045890;28;20041;-84
2023/12/21 06:10:01;;;;;;;3.05;1.00;;;;;;;;;;5052005;28;20037;-83
2023/12/21 06:12:27;;;;;;;4.07;1.20;;;;;;;;;;5049176;28;20033;-82
2023/12/21 06:14:54;;;;;;;3.13;1.00;;;;;;;;;;5054758;28;20041;-83
2023/12/21 06:17:20;;;;;;;6.38;1.80;;;;;;;;;;5052503;28;20051;-84
2023/12/21 06:19:46;;;;;;;2.78;0.85;;;;;;;;;;5029022;28;20488;-82
2023/12/21 06:22:12;;;;;;;3.13;1.00;;;;;;;;;;5044012;28;20034;-85
2023/12/21 06:24:38;;;;;;;7.10;1.73;;;;;;;;;;5042043;28;20052;-83
2023/12/21 06:27:04;;;;;;;6.30;1.40;;;;;;;;;;5044533;28;20582;-84
2023/12/21 06:29:30;;;;;;;5.03;1.67;;;;;;;;;;5028938;28;20037;-82
2023/12/21 06:31:56;;;;;;;1.27;0.65;;;;;;;;;;5028692;28;20037;-83
2023/12/21 06:34:25;;;;;;;6.97;1.17;;;;;;;;;;5031956;28;20536;-82
2023/12/21 06:36:51;;;;;;;8.27;2.38;;;;;;;;;;5043686;28;20042;-83
2023/12/21 06:39:17;;;;;;;4.57;1.55;;;;;;;;;;5051353;28;20083;-83
2023/12/21 06:41:44;;;;;;;3.17;0.88;;;;;;;;;;5045283;28;20045;-83
2023/12/21 06:44:10;;;;;;;2.78;1.60;;;;;;;;;;5030783;28;20044;-83
2023/12/21 06:46:36;;;;;;;4.88;0.70;;;;;;;;;;5035846;28;20175;-83
2023/12/21 06:49:02;;;;;;;3.60;1.13;;;;;;;;;;5033833;28;20523;-84
2023/12/21 06:51:28;;;;;;;5.03;1.58;;;;;;;;;;5041160;28;20042;-83
2023/12/21 06:53:54;;;;;;;3.58;1.52;;;;;;;;;;5050161;28;20045;-85
2023/12/21 06:56:20;;;;;;;3.35;1.00;;;;;;;;;;5044463;28;20533;-84
2023/12/21 06:58:46;;;;;;;2.78;1.25;;;;;;;;;;5046692;28;21291;-84
2023/12/21 07:01:12;;;;;;;0.38;0.38;;;;;;;;;;5047370;28;20048;-84
2023/12/21 07:03:38;;;;;;;3.53;0.88;;;;;;;;;;5044848;28;20416;-84
2023/12/21 07:06:07;;;;;;;5.05;0.98;;;;;;;;;;5025495;28;20044;-82
2023/12/21 07:08:33;;;;;;;1.52;0.38;;;;;;;;;;5047292;28;20503;-85
2023/12/21 07:10:59;;;;;;;1.08;0.80;;;;;;;;;;5025288;28;20038;-84
2023/12/21 07:13:25;;;;;;;2.33;0.70;;;;;;;;;;5051421;28;20060;-83
2023/12/21 07:15:52;;;;;;;2.92;1.00;;;;;;;;;;5039876;28;20033;-83
2023/12/21 07:18:18;;;;;;;3.72;1.27;;;;;;;;;;5052815;28;20068;-82
2023/12/21 07:20:44;;;;;;;3.50;1.17;;;;;;;;;;5046781;28;20037;-83
2023/12/21 07:23:10;;;;;;;6.57;0.70;;;;;;;;;;5046205;28;20099;-83
2023/12/21 07:25:36;;;;;;;2.83;0.95;;;;;;;;;;5048782;28;20045;-84
2023/12/21 07:28:02;;;;;;;1.63;1.05;;;;;;;;;;5026275;28;20048;-83
2023/12/21 07:30:28;;;;;;;0.57;0.50;;;;;;;;;;5027649;28;20064;-83
2023/12/21 07:32:54;;;;;;;1.88;0.60;;;;;;;;;;5024066;28;20492;-82
2023/12/21 07:35:20;;;;;;;2.03;0.90;;;;;;;;;;5047583;28;20037;-83
2023/12/21 07:37:46;;;;;;;12.30;1.50;;;;;;;;;;5044926;28;20045;-83
2023/12/21 07:40:12;;;;;;;0.40;0.40;;;;;;;;;;5043448;28;20041;-83
2023/12/21 07:42:38;;;;;;;3.60;0.73;;;;;;;;;;5046604;28;20038;-83
2023/12/21 07:45:05;;;;;;;2.28;0.60;;;;;;;;;;5026673;28;20063;-84
2023/12/21 07:47:31;;;;;;;1.45;0.80;;;;;;;;;;5028454;28;20038;-83
2023/12/21 07:49:57;;;;;;;1.23;0.50;;;;;;;;;;5026941;28;20067;-83
2023/12/21 07:52:23;;;;;;;1.05;0.77;;;;;;;;;;5047041;28;20037;-83
2023/12/21 07:54:49;;;;;;;3.33;0.88;;;;;;;;;;5025634;28;20060;-83
2023/12/21 07:57:15;;;;;;;2.65;1.13;;;;;;;;;;5043622;28;20052;-83
2023/12/21 07:59:41;;;;;;;3.67;0.63;;;;;;;;;;5050299;28;20053;-83
2023/12/21 08:02:07;;;;;;;2.20;0.52;;;;;;;;;;5022951;28;20042;-83
2023/12/21 08:04:33;;;;;;;1.23;0.82;;;;;;;;;;5052018;28;20115;-82
2023/12/21 08:06:59;;;;;;;0.75;0.38;;;;;;;;;;5047081;28;20067;-85
2023/12/21 08:09:25;;;;;;;0.20;0.20;;;;;;;;;;5051572;28;20040;-82
2023/12/21 08:11:51;;;;;;;0.90;0.82;;;;;;;;;;5034302;28;20395;-84
2023/12/21 08:14:17;;;;;;;0.70;0.40;;;;;;;;;;5038599;28;20055;-84
2023/12/21 08:16:43;;;;;;;0.10;0.10;;;;;;;;;;5051078;28;20045;-85
2023/12/21 08:19:10;;;;;;;0.68;0.30;;;;;;;;;;5032034;28;20045;-83
2023/12/21 08:21:36;;;;;;;1.58;0.30;;;;;;;;;;5054078;28;20041;-83
2023/12/21 08:24:03;;;;;;;3.22;0.90;;;;;;;;;;5050438;28;20041;-83
2023/12/21 08:26:29;;;;;;;0.60;0.60;;;;;;;;;;5036931;28;20076;-83
2023/12/21 08:28:55;;;;;;;1.50;0.55;;;;;;;;;;5030836;28;20419;-82
2023/12/21 08:31:28;;;;;;;0.88;0.38;;;;;;;;;;5046572;28;20033;-83
2023/12/21 08:33:54;;;;;;;0.30;0.25;;;;;;;;;;5029805;28;20049;-80
2023/12/21 08:36:21;;;;;;;0.93;0.40;;;;;;;;;;5048756;28;20045;-80
2023/12/21 08:38:48;;;;;;;0.70;0.65;;;;;;;;;;5052423;28;20037;-80
2023/12/21 08:41:14;;;;;;;1.15;0.50;;;;;;;;;;5045889;28;20044;-82
2023/12/21 08:43:40;;;;;;;1.42;0.40;;;;;;;;;;5029845;28;20049;-80
2023/12/21 08:46:06;;;;;;;0.10;0.10;;;;;;;;;;5030558;28;20086;-83
2023/12/21 08:48:32;;;;;;;0.20;0.20;;;;;;;;;;5052366;28;20408;-82
2023/12/21 08:50:58;;;;;;;0.30;0.10;;;;;;;;;;5029061;28;20114;-81
2023/12/21 08:53:24;;;;;;;0.85;0.63;;;;;;;;;;5027949;28;20084;-80
2023/12/21 08:55:50;;;;;;;0.32;0.30;;;;;;;;;;5030189;28;20053;-81
2023/12/21 08:58:16;;;;;;;0.93;0.30;;;;;;;;;;5030169;28;20037;-80
2023/12/21 09:00:42;;;;;;;1.00;0.28;;;;;;;;;;5029867;28;20049;-81
2023/12/21 09:03:08;;;;;;;0.22;0.22;;;;;;;;;;5044879;28;20037;-81
2023/12/21 09:05:34;;;;;;;2.75;0.57;;;;;;;;;;5046614;28;20053;-80
2023/12/21 09:08:00;;;;;;;2.42;0.40;;;;;;;;;;5045698;28;20086;-82
2023/12/21 09:10:27;;;;;;;1.40;0.45;;;;;;;;;;5033167;28;20049;-80
2023/12/21 09:12:53;;;;;;;0.80;0.38;;;;;;;;;;5036407;28;20484;-81
2023/12/21 09:15:19;;;;;;;1.67;0.80;;;;;;;;;;5009890;28;20041;-83
2023/12/21 09:17:46;;;;;;;1.42;1.02;;;;;;;;;;5037086;28;20033;-80
2023/12/21 09:20:13;;;;;;;0.55;0.25;;;;;;;;;;5029427;28;20106;-83
2023/12/21 09:22:39;;;;;;;2.22;0.60;;;;;;;;;;5033244;28;20049;-82
2023/12/21 09:25:05;;;;;;;4.90;0.82;;;;;;;;;;5047242;28;20088;-83
2023/12/21 09:27:34;;;;;;;0.52;0.10;;;;;;;;;;5051812;28;20381;-80
2023/12/21 09:30:00;;;;;;;2.10;0.73;;;;;;;;;;5052132;28;20044;-81
2023/12/21 09:32:26;;;;;;;0.30;0.22;;;;;;;;;;5045883;28;20064;-83
2023/12/21 09:34:52;;;;;;;3.03;0.60;;;;;;;;;;5027658;28;20042;-82
2023/12/21 09:37:18;;;;;;;0.17;0.17;;;;;;;;;;5048153;28;20033;-81
2023/12/21 09:39:44;;;;;;;3.35;0.55;;;;;;;;;;5024299;28;20220;-82
2023/12/21 09:42:14;;;;;;;1.73;0.47;;;;;;;;;;5027072;28;20049;-83
2023/12/21 09:44:40;;;;;;;0.57;0.30;;;;;;;;;;5051851;28;20049;-84
2023/12/21 09:47:07;;;;;;;1.38;0.43;;;;;;;;;;5045513;28;20033;-83
2023/12/21 09:49:37;;;;;;;2.80;0.50;;;;;;;;;;5035610;28;20095;-82
2023/12/21 09:52:08;;;;;;;0.82;0.38;;;;;;;;;;5053783;28;20128;-82
2023/12/21 09:54:38;;;;;;;0.65;0.38;;;;;;;;;;5051227;28;20055;-80
2023/12/21 09:57:05;;;;;;;1.00;0.50;;;;;;;;;;5045856;28;20135;-82
2023/12/21 09:59:34;;;;;;;2.95;0.73;;;;;;;;;;5051594;28;20043;-83
2023/12/21 10:02:00;;;;;;;4.25;0.90;;;;;;;;;;5030483;28;20049;-83
2023/12/21 10:04:26;;;;;;;2.05;0.38;;;;;;;;;;5046672;28;20480;-83
2023/12/21 10:06:53;;;;;;;5.32;1.13;;;;;;;;;;5029519;28;20048;-84
2023/12/21 10:09:19;;;;;;;1.52;0.70;;;;;;;;;;5047002;28;20033;-84
2023/12/21 10:11:45;;;;;;;1.63;1.00;;;;;;;;;;5044376;28;20041;-85
2023/12/21 10:14:21;;;;;;;6.78;0.80;;;;;;;;;;5030659;28;20040;-82
2023/12/21 10:16:47;;;;;;;1.55;0.68;;;;;;;;;;5049904;28;20055;-84
2023/12/21 10:19:13;;;;;;;3.83;1.63;;;;;;;;;;5032161;28;20045;-85
2023/12/21 10:21:42;;;;;;;3.50;0.80;;;;;;;;;;5028071;28;20033;-81
2023/12/21 10:24:10;;;;;;;1.20;0.60;;;;;;;;;;5046519;28;20048;-84
2023/12/21 10:26:43;;;;;;;10.85;1.63;;;;;;;;;;5045288;28;20042;-83
2023/12/21 10:29:09;;;;;;;1.50;0.47;;;;;;;;;;5025816;28;20115;-84
2023/12/21 10:31:35;;;;;;;2.42;0.52;;;;;;;;;;5028588;28;20042;-85
2023/12/21 10:34:02;;;;;;;3.65;0.68;;;;;;;;;;5042839;28;20033;-84
2023/12/21 10:36:28;;;;;;;2.50;0.80;;;;;;;;;;5026211;28;20453;-84
2023/12/21 10:38:54;;;;;;;5.97;0.73;;;;;;;;;;5028142;28;20041;-83
2023/12/21 10:41:21;;;;;;;4.00;1.20;;;;;;;;;;5042225;28;20068;-84
2023/12/21 10:43:47;;;;;;;3.80;1.00;;;;;;;;;;5024804;28;20045;-86
2023/12/21 10:46:17;;;;;;;5.50;1.42;;;;;;;;;;5030401;28;20392;-85
2023/12/21 10:48:44;;;;;;;2.97;1.42;;;;;;;;;;5028776;28;20099;-84
2023/12/21 10:51:11;;;;;;;5.40;1.33;;;;;;;;;;5043730;28;20127;-84
2023/12/21 10:53:37;;;;;;;2.13;0.93;;;;;;;;;;5046012;28;20079;-86
2023/12/21 10:56:03;;;;;;;9.40;1.42;;;;;;;;;;5038589;28;20045;-84
2023/12/21 10:58:31;;;;;;;1.40;0.50;;;;;;;;;;5030866;28;20132;-83
2023/12/21 11:00:58;;;;;;;6.60;1.23;;;;;;;;;;5046249;28;20045;-84
2023/12/21 11:03:24;;;;;;;7.60;1.92;;;;;;;;;;5027323;28;20061;-84
2023/12/21 11:05:50;;;;;;;2.70;1.20;;;;;;;;;;5024437;28;20129;-84
2023/12/21 11:08:17;;;;;;;4.30;1.35;;;;;;;;;;5026454;28;20267;-86
2023/12/21 11:10:44;;;;;;;5.55;1.70;;;;;;;;;;5043941;28;20045;-84
2023/12/21 11:13:10;;;;;;;7.30;1.50;;;;;;;;;;5045358;28;20038;-83
2023/12/21 11:15:36;;;;;;;7.43;1.45;;;;;;;;;;5007384;28;20049;-83
2023/12/21 11:18:08;;;;;;;8.55;1.80;;;;;;;;;;5027385;28;20084;-83
2023/12/21 11:20:38;;;;;;;5.72;2.00;;;;;;;;;;5044233;28;20025;-85
2023/12/21 11:23:07;;;;;;;7.70;1.88;;;;;;;;;;5023550;28;20045;-87
2023/12/21 11:25:33;;;;;;;3.83;1.63;;;;;;;;;;5041913;28;20037;-85
2023/12/21 11:28:02;;;;;;;10.60;1.98;;;;;;;;;;5024947;28;20054;-86
2023/12/21 11:30:28;;;;;;;8.02;1.75;;;;;;;;;;5020521;28;20112;-85
2023/12/21 11:33:03;;;;;;;2.40;0.85;;;;;;;;;;5007100;28;20115;-85
2023/12/21 11:35:31;;;;;;;8.95;2.97;;;;;;;;;;5025024;28;20044;-84
2023/12/21 11:37:58;;;;;;;7.80;2.50;;;;;;;;;;5021881;28;20060;-84
2023/12/21 11:40:25;;;;;;;5.38;2.10;;;;;;;;;;5027527;28;20073;-86
2023/12/21 11:42:56;;;;;;;9.60;2.17;;;;;;;;;;5039893;28;20095;-87
2023/12/21 11:45:25;;;;;;;6.35;2.03;;;;;;;;;;5028479;28;20381;-84
2023/12/21 11:47:54;;;;;;;4.78;1.55;;;;;;;;;;5021939;28;20124;-86
2023/12/21 11:50:21;;;;;;;10.88;2.78;;;;;;;;;;5029200;28;20098;-86
2023/12/21 11:52:48;;;;;;;5.93;1.27;;;;;;;;;;5027548;28;20040;-85
2023/12/21 11:55:34;;;;;;;7.63;2.08;;;;;;;;;;5024142;28;20052;-84
2023/12/21 11:58:08;;;;;;;7.57;2.28;;;;;;;;;;5022002;28;20526;-86
2023/12/21 12:00:34;;;;;;;6.10;1.63;;;;;;;;;;5048174;28;20052;-84
2023/12/21 12:03:00;;;;;;;10.77;2.22;;;;;;;;;;5026680;28;20043;-83
2023/12/21 12:05:28;;;;;;;9.70;1.23;;;;;;;;;;5045512;28;20177;-84
2023/12/21 12:07:54;;;;;;;9.93;2.10;;;;;;;;;;5024547;28;20331;-84
2023/12/21 12:10:22;;;;;;;10.20;2.05;;;;;;;;;;5025355;28;20064;-84
2023/12/21 12:12:48;;;;;;;12.70;2.80;;;;;;;;;;5043505;28;20119;-82
2023/12/21 12:15:14;;;;;;;17.50;3.00;;;;;;;;;;5027204;28;20042;-83
2023/12/21 12:17:44;;;;;;;14.98;3.40;;;;;;;;;;5030563;28;20037;-86
2023/12/21 12:20:10;;;;;;;10.20;2.53;;;;;;;;;;5023050;28;20050;-86
2023/12/21 12:22:36;;;;;;;8.75;2.47;;;;;;;;;;5031555;28;20068;-84
2023/12/21 12:25:03;;;;;;;9.77;2.90;;;;;;;;;;5025147;28;20487;-84
2023/12/21 12:27:29;;;;;;;13.48;2.72;;;;;;;;;;5025185;28;20072;-84
2023/12/21 12:29:55;;;;;;;4.53;1.60;;;;;;;;;;5030082;28;20116;-83
2023/12/21 12:32:22;;;;;;;8.55;2.38;;;;;;;;;;5028116;28;20044;-84
2023/12/21 12:34:48;;;;;;;7.20;1.58;;;;;;;;;;5026706;28;20515;-85
2023/12/21 12:37:15;;;;;;;8.48;2.28;;;;;;;;;;5030439;28;20037;-84
2023/12/21 12:39:44;;;;;;;11.80;2.22;;;;;;;;;;5035098;28;20389;-85
2023/12/21 12:42:10;;;;;;;14.35;1.95;;;;;;;;;;5027302;28;20049;-85
2023/12/21 12:44:36;;;;;;;6.63;1.98;;;;;;;;;;5043694;28;20045;-83
2023/12/21 12:47:05;;;;;;;9.57;1.90;;;;;;;;;;5025550;28;20086;-85
2023/12/21 12:49:34;;;;;;;7.45;1.52;;;;;;;;;;5045173;28;20404;-85
2023/12/21 12:52:01;;;;;;;12.85;2.33;;;;;;;;;;5007835;28;20052;-83
2023/12/21 12:54:30;;;;;;;12.23;3.30;;;;;;;;;;5031555;28;20044;-86
2023/12/21 12:57:00;;;;;;;9.98;1.98;;;;;;;;;;5033630;28;20057;-85
2023/12/21 12:59:26;;;;;;;7.95;1.67;;;;;;;;;;5029766;28;20052;-87
2023/12/21 13:01:52;;;;;;;11.10;3.33;;;;;;;;;;5034994;28;20041;-87
2023/12/21 13:04:18;;;;;;;8.73;2.83;;;;;;;;;;5036034;28;20052;-84
2023/12/21 13:06:49;;;;;;;8.07;2.80;;;;;;;;;;5050328;28;20045;-87
2023/12/21 13:09:15;;;;;;;5.68;2.47;;;;;;;;;;5046852;28;20044;-84
2023/12/21 13:11:41;;;;;;;8.18;2.58;;;;;;;;;;5046632;28;20044;-85
2023/12/21 13:14:07;;;;;;;12.20;2.10;;;;;;;;;;5027874;28;20048;-84
2023/12/21 13:16:34;;;;;;;13.70;2.53;;;;;;;;;;5028283;28;20053;-85
2023/12/21 13:19:02;;;;;;;8.00;2.13;;;;;;;;;;5043203;28;20506;-84
2023/12/21 13:21:28;;;;;;;14.88;3.47;;;;;;;;;;5028660;28;20045;-85
2023/12/21 13:23:54;;;;;;;4.20;1.45;;;;;;;;;;5026192;28;20032;-84
2023/12/21 13:26:20;;;;;;;11.60;3.47;;;;;;;;;;5040275;28;20202;-86
2023/12/21 13:28:46;;;;;;;11.18;2.70;;;;;;;;;;5027882;28;20041;-85
2023/12/21 13:31:13;;;;;;;15.00;3.60;;;;;;;;;;5027879;28;20120;-85
2023/12/21 13:33:40;;;;;;;11.20;2.80;;;;;;;;;;5043057;28;20076;-85
2023/12/21 13:36:06;;;;;;;7.60;2.25;;;;;;;;;;5046373;28;20095;-85
2023/12/21 13:38:32;;;;;;;10.20;3.22;;;;;;;;;;5050970;28;20052;-84
2023/12/21 13:40:58;;;;;;;9.35;2.50;;;;;;;;;;5025321;28;20042;-85
2023/12/21 13:43:24;;;;;;;9.45;3.17;;;;;;;;;;5029455;28;20061;-85
2023/12/21 13:45:50;;;;;;;12.07;1.65;;;;;;;;;;5049367;28;20059;-84
2023/12/21 13:48:18;;;;;;;10.02;2.47;;;;;;;;;;5049103;28;20033;-83
2023/12/21 13:50:44;;;;;;;11.50;2.85;;;;;;;;;;5030427;28;20055;-84
2023/12/21 13:53:10;;;;;;;10.18;1.60;;;;;;;;;;5044391;28;20036;-82
2023/12/21 13:55:36;;;;;;;11.25;2.20;;;;;;;;;;5028426;28;20144;-83
2023/12/21 13:58:02;;;;;;;9.52;2.45;;;;;;;;;;5033484;28;20048;-84
2023/12/21 14:00:28;;;;;;;13.27;3.38;;;;;;;;;;5047659;28;20526;-89
2023/12/21 14:02:54;;;;;;;8.60;3.45;;;;;;;;;;5025188;28;20034;-84
2023/12/21 14:05:20;;;;;;;8.27;1.17;;;;;;;;;;5028672;28;20041;-84
2023/12/21 14:07:47;;;;;;;14.23;2.63;;;;;;;;;;5031100;28;20053;-84
2023/12/21 14:10:12;;;;;;;12.40;3.60;;;;;;;;;;5024244;28;20040;-85
2023/12/21 14:12:38;;;;;;;13.65;4.13;;;;;;;;;;5029557;28;20377;-84
2023/12/21 14:15:05;;;;;;;15.80;4.75;;;;;;;;;;5042093;28;20037;-82
2023/12/21 14:17:31;;;;;;;13.68;2.22;;;;;;;;;;5048272;28;20069;-84
2023/12/21 14:19:57;;;;;;;9.82;2.63;;;;;;;;;;5028404;28;20049;-84
2023/12/21 14:22:23;;;;;;;12.85;3.15;;;;;;;;;;5044259;28;20401;-86
2023/12/21 14:24:49;;;;;;;10.75;2.47;;;;;;;;;;5030322;28;20033;-86
2023/12/21 14:27:19;;;;;;;14.98;2.88;;;;;;;;;;5026159;28;20458;-82
2023/12/21 14:29:45;;;;;;;4.07;0.90;;;;;;;;;;5049928;28;20119;-80
2023/12/21 14:32:11;;;;;;;7.57;0.70;;;;;;;;;;5047783;28;20064;-80
2023/12/21 14:34:37;;;;;;;5.75;1.00;;;;;;;;;;5057197;28;20049;-83
2023/12/21 14:37:03;;;;;;;1.85;0.60;;;;;;;;;;5050547;28;20048;-82